Charlotte Roush — WDE5112 — position and weather

sailwx.info

Track history (hours):
 
Tides and Currents Weather Stations Pressure Air Temp Water Temp Dewpoint Dewpoint Depression Visibility Wind Speed Wind Dir Waves Ship Positions

Charlotte Roush

Owner: AEP River Operations LLC, Chesterfield, MO. More information available from US FCC via Universal Licensing System and Coast Guard Vessel Documentation Center.

Last reported at 2016-May-06 06:09 UTC. Time now 2016-May-06 16:51 UTC.
Position N 29°56' W 090°13'.

Length 35 m; draft 3 m.

Type: Towing. MMSI: 367362230.

Date/timePositionNaut miles runAvg speedWind from/ knotsBaromVisibWave heightAir tempDewpointWater temp
2016-May-06 06:09N 29°56' W 090°13'1 1.7
2016-May-06 05:33N 29°56' W 090°12'0 0.1
2016-May-06 01:34N 29°56' W 090°12'0 0.3
2016-May-06 00:34N 29°56' W 090°12'0 0.0
2016-May-05 23:33N 29°56' W 090°12'0 0.0
2016-May-05 22:33N 29°56' W 090°12'0 0.0
2016-May-05 21:33N 29°56' W 090°12'0 0.0
2016-May-05 20:33N 29°56' W 090°12'0 0.0
2016-May-05 19:34N 29°56' W 090°12'0 0.0
2016-May-05 18:33N 29°56' W 090°12'0 0.0
2016-May-05 17:33N 29°56' W 090°12'0 0.0
2016-May-05 16:33N 29°56' W 090°12'0 0.0
2016-May-05 15:34N 29°56' W 090°12'0 0.0
2016-May-05 14:33N 29°56' W 090°12'0 0.0
2016-May-05 13:33N 29°56' W 090°12'0 0.0
2016-May-05 12:30N 29°56' W 090°12'0 0.3
2016-May-05 11:33N 29°56' W 090°11'3 2.8
2016-May-05 10:33N 29°55' W 090°08'4 4.3
2016-May-05 09:34N 29°57' W 090°04'5 4.9
2016-May-05 08:33N 29°55' W 089°58'2 1.8
2016-May-05 07:33N 29°55' W 089°56'0 0.0
2016-May-05 06:33N 29°55' W 089°56'1 1.2
2016-May-05 05:34N 29°55' W 089°58'5 5.1
2016-May-05 04:33N 29°56' W 090°03'4 4.3
2016-May-05 03:33N 29°57' W 090°08'2 0.6
2016-May-04 23:32N 29°56' W 090°11'0 0.2
2016-May-04 21:19N 29°56' W 090°10'2 3.2
2016-May-04 20:34N 29°55' W 090°08'5 5.0
2016-May-04 19:34N 29°57' W 090°03'6 5.8
2016-May-04 18:33N 29°55' W 089°57'3 3.1
2016-May-04 17:34N 29°52' W 089°56'6 5.2
2016-May-04 16:26N 29°48' W 090°00'2 0.3
2016-May-04 10:33N 29°50' W 089°60'4 4.2
2016-May-04 09:33N 29°52' W 089°56'3 3.1
2016-May-04 08:33N 29°55' W 089°56'5 5.5
2016-May-04 07:34N 29°57' W 090°02'3 3.0
2016-May-04 06:34N 29°55' W 090°04'4 4.2
2016-May-04 05:33N 29°57' W 090°09'3 3.0
2016-May-04 04:33N 29°56' W 090°12'0 0.0
2016-May-02 08:20N 29°55' W 090°12'1 1.5
2016-May-02 07:34N 29°56' W 090°11'3 3.2
2016-May-02 06:33N 29°55' W 090°08'4 4.3
2016-May-02 05:33N 29°57' W 090°04'5 5.1
2016-May-02 04:33N 29°55' W 089°58'1 0.5
2016-May-02 03:33N 29°55' W 089°58'0 0.0
2016-May-02 02:33N 29°55' W 089°58'0 0.0
2016-May-02 01:33N 29°55' W 089°58'1 0.9
2016-May-02 00:34N 29°54' W 089°59'4 4.1
2016-May-01 23:33N 29°51' W 090°02'2 1.8
2016-May-01 22:33N 29°50' W 090°04'0 0.0
2016-May-01 21:34N 29°50' W 090°04'0 0.0
2016-May-01 20:33N 29°50' W 090°04'0 0.0
2016-May-01 11:15N 29°50' W 090°04'0 0.0
2016-May-01 10:33N 29°50' W 090°04'0 0.0
2016-May-01 09:33N 29°50' W 090°04'0 0.0
2016-May-01 08:33N 29°50' W 090°04'0 0.0
2016-May-01 07:33N 29°50' W 090°04'0 0.0
2016-May-01 06:33N 29°50' W 090°04'0 0.0
2016-May-01 05:33N 29°50' W 090°04'0 0.0
2016-May-01 04:33N 29°50' W 090°04'0 0.0
2016-May-01 03:33N 29°50' W 090°04'0 0.0
2016-May-01 02:33N 29°50' W 090°04'0 0.0
2016-May-01 01:33N 29°50' W 090°04'0 0.0
2016-May-01 00:33N 29°50' W 090°04'0 0.0
2016-Apr-30 23:33N 29°50' W 090°04'0 0.0
2016-Apr-30 22:33N 29°50' W 090°04'0 0.0
2016-Apr-30 21:33N 29°50' W 090°04'0 0.0
2016-Apr-30 20:33N 29°50' W 090°04'0 0.0
2016-Apr-30 19:32N 29°50' W 090°04'0 0.0
2016-Apr-30 18:33N 29°50' W 090°04'0 0.0
2016-Apr-30 17:33N 29°50' W 090°04'  
2016-Apr-28 12:09N 29°50' W 090°04'0 0.0
2016-Apr-28 11:33N 29°50' W 090°04'0 0.0
2016-Apr-28 10:32N 29°50' W 090°04'0 0.0
2016-Apr-28 09:33N 29°50' W 090°04'0 0.0
2016-Apr-28 08:33N 29°50' W 090°04'0 0.0
2016-Apr-28 07:33N 29°50' W 090°04'0 0.0
2016-Apr-28 06:33N 29°50' W 090°04'0 0.0
2016-Apr-28 05:33N 29°50' W 090°04'0 0.0
2016-Apr-28 04:33N 29°50' W 090°04'0 0.0
2016-Apr-28 03:33N 29°50' W 090°04'0 0.0
2016-Apr-28 02:33N 29°50' W 090°04'0 0.0
2016-Apr-28 01:32N 29°50' W 090°04'0 0.2
2016-Apr-27 23:29N 29°50' W 090°04'4 3.4
2016-Apr-27 22:21N 29°53' W 090°00'0 0.0
2016-Apr-27 21:33N 29°53' W 090°00'3 2.6
2016-Apr-27 20:33N 29°55' W 089°58'4 3.2
2016-Apr-27 19:12N 29°57' W 090°02'4 6.6
2016-Apr-27 18:33N 29°55' W 090°06'  
Track history (hours):
 
Tides and Currents Weather Stations Pressure Air Temp Water Temp Dewpoint Dewpoint Depression Visibility Wind Speed Wind Dir Waves Ship Positions

Charlotte Roush

Owner: AEP River Operations LLC, Chesterfield, MO. More information available from US FCC via Universal Licensing System and Coast Guard Vessel Documentation Center.

Last reported at 2016-May-06 06:09 UTC. Time now 2016-May-06 16:51 UTC.
Position N 29°56' W 090°13'.

Length 35 m; draft 3 m.

Type: Towing. MMSI: 367362230.

Date/timePositionNaut miles runAvg speedWind from/ knotsBaromVisibWave heightAir tempDewpointWater temp
2016-May-06 06:09N 29°56' W 090°13'1 1.7
2016-May-06 05:33N 29°56' W 090°12'0 0.1
2016-May-06 01:34N 29°56' W 090°12'0 0.3
2016-May-06 00:34N 29°56' W 090°12'0 0.0
2016-May-05 23:33N 29°56' W 090°12'0 0.0
2016-May-05 22:33N 29°56' W 090°12'0 0.0
2016-May-05 21:33N 29°56' W 090°12'0 0.0
2016-May-05 20:33N 29°56' W 090°12'0 0.0
2016-May-05 19:34N 29°56' W 090°12'0 0.0
2016-May-05 18:33N 29°56' W 090°12'0 0.0
2016-May-05 17:33N 29°56' W 090°12'0 0.0
2016-May-05 16:33N 29°56' W 090°12'0 0.0
2016-May-05 15:34N 29°56' W 090°12'0 0.0
2016-May-05 14:33N 29°56' W 090°12'0 0.0
2016-May-05 13:33N 29°56' W 090°12'0 0.0
2016-May-05 12:30N 29°56' W 090°12'0 0.3
2016-May-05 11:33N 29°56' W 090°11'3 2.8
2016-May-05 10:33N 29°55' W 090°08'4 4.3
2016-May-05 09:34N 29°57' W 090°04'5 4.9
2016-May-05 08:33N 29°55' W 089°58'2 1.8
2016-May-05 07:33N 29°55' W 089°56'0 0.0
2016-May-05 06:33N 29°55' W 089°56'1 1.2
2016-May-05 05:34N 29°55' W 089°58'5 5.1
2016-May-05 04:33N 29°56' W 090°03'4 4.3
2016-May-05 03:33N 29°57' W 090°08'2 0.6
2016-May-04 23:32N 29°56' W 090°11'0 0.2
2016-May-04 21:19N 29°56' W 090°10'2 3.2
2016-May-04 20:34N 29°55' W 090°08'5 5.0
2016-May-04 19:34N 29°57' W 090°03'6 5.8
2016-May-04 18:33N 29°55' W 089°57'3 3.1
2016-May-04 17:34N 29°52' W 089°56'6 5.2
2016-May-04 16:26N 29°48' W 090°00'2 0.3
2016-May-04 10:33N 29°50' W 089°60'4 4.2
2016-May-04 09:33N 29°52' W 089°56'3 3.1
2016-May-04 08:33N 29°55' W 089°56'5 5.5
2016-May-04 07:34N 29°57' W 090°02'3 3.0
2016-May-04 06:34N 29°55' W 090°04'4 4.2
2016-May-04 05:33N 29°57' W 090°09'3 3.0
2016-May-04 04:33N 29°56' W 090°12'0 0.0
2016-May-02 08:20N 29°55' W 090°12'1 1.5
2016-May-02 07:34N 29°56' W 090°11'3 3.2
2016-May-02 06:33N 29°55' W 090°08'4 4.3
2016-May-02 05:33N 29°57' W 090°04'5 5.1
2016-May-02 04:33N 29°55' W 089°58'1 0.5
2016-May-02 03:33N 29°55' W 089°58'0 0.0
2016-May-02 02:33N 29°55' W 089°58'0 0.0
2016-May-02 01:33N 29°55' W 089°58'1 0.9
2016-May-02 00:34N 29°54' W 089°59'4 4.1
2016-May-01 23:33N 29°51' W 090°02'2 1.8
2016-May-01 22:33N 29°50' W 090°04'0 0.0
2016-May-01 21:34N 29°50' W 090°04'0 0.0
2016-May-01 20:33N 29°50' W 090°04'0 0.0
2016-May-01 11:15N 29°50' W 090°04'0 0.0
2016-May-01 10:33N 29°50' W 090°04'0 0.0
2016-May-01 09:33N 29°50' W 090°04'0 0.0
2016-May-01 08:33N 29°50' W 090°04'0 0.0
2016-May-01 07:33N 29°50' W 090°04'0 0.0
2016-May-01 06:33N 29°50' W 090°04'0 0.0
2016-May-01 05:33N 29°50' W 090°04'0 0.0
2016-May-01 04:33N 29°50' W 090°04'0 0.0
2016-May-01 03:33N 29°50' W 090°04'0 0.0
2016-May-01 02:33N 29°50' W 090°04'0 0.0
2016-May-01 01:33N 29°50' W 090°04'0 0.0
2016-May-01 00:33N 29°50' W 090°04'0 0.0
2016-Apr-30 23:33N 29°50' W 090°04'0 0.0
2016-Apr-30 22:33N 29°50' W 090°04'0 0.0
2016-Apr-30 21:33N 29°50' W 090°04'0 0.0
2016-Apr-30 20:33N 29°50' W 090°04'0 0.0
2016-Apr-30 19:32N 29°50' W 090°04'0 0.0
2016-Apr-30 18:33N 29°50' W 090°04'0 0.0
2016-Apr-30 17:33N 29°50' W 090°04'  
2016-Apr-28 12:09N 29°50' W 090°04'0 0.0
2016-Apr-28 11:33N 29°50' W 090°04'0 0.0
2016-Apr-28 10:32N 29°50' W 090°04'0 0.0
2016-Apr-28 09:33N 29°50' W 090°04'0 0.0
2016-Apr-28 08:33N 29°50' W 090°04'0 0.0
2016-Apr-28 07:33N 29°50' W 090°04'0 0.0
2016-Apr-28 06:33N 29°50' W 090°04'0 0.0
2016-Apr-28 05:33N 29°50' W 090°04'0 0.0
2016-Apr-28 04:33N 29°50' W 090°04'0 0.0
2016-Apr-28 03:33N 29°50' W 090°04'0 0.0
2016-Apr-28 02:33N 29°50' W 090°04'0 0.0
2016-Apr-28 01:32N 29°50' W 090°04'0 0.2
2016-Apr-27 23:29N 29°50' W 090°04'4 3.4
2016-Apr-27 22:21N 29°53' W 090°00'0 0.0
2016-Apr-27 21:33N 29°53' W 090°00'3 2.6
2016-Apr-27 20:33N 29°55' W 089°58'4 3.2
2016-Apr-27 19:12N 29°57' W 090°02'4 6.6
2016-Apr-27 18:33N 29°55' W 090°06'  

Dump ship's entire track history